sensor_id;sensor_type;location;lat;lon;timestamp;pressure;altitude;pressure_sealevel;temperature;humidity
10462;BME280;5278;42.656;23.374;2023-06-22T00:00:09;95049.63;;;21.67;74.05
10462;BME280;5278;42.656;23.374;2023-06-22T00:02:38;95053.03;;;21.67;74.15
10462;BME280;5278;42.656;23.374;2023-06-22T00:05:06;95045.38;;;21.66;74.32
10462;BME280;5278;42.656;23.374;2023-06-22T00:07:33;95045.69;;;21.58;74.36
10462;BME280;5278;42.656;23.374;2023-06-22T00:10:00;95044.88;;;21.57;74.60
10462;BME280;5278;42.656;23.374;2023-06-22T00:12:27;95046.75;;;21.57;74.49
10462;BME280;5278;42.656;23.374;2023-06-22T00:14:55;95052.06;;;21.57;74.37
10462;BME280;5278;42.656;23.374;2023-06-22T00:17:22;95048.81;;;21.55;74.42
10462;BME280;5278;42.656;23.374;2023-06-22T00:19:50;95043.06;;;21.58;74.37
10462;BME280;5278;42.656;23.374;2023-06-22T00:22:20;95043.41;;;21.61;74.69
10462;BME280;5278;42.656;23.374;2023-06-22T00:24:54;95033.06;;;21.60;74.84
10462;BME280;5278;42.656;23.374;2023-06-22T00:27:23;95022.94;;;21.57;74.88
10462;BME280;5278;42.656;23.374;2023-06-22T00:29:50;95020.88;;;21.59;74.90
10462;BME280;5278;42.656;23.374;2023-06-22T00:32:17;95015.47;;;21.54;74.98
10462;BME280;5278;42.656;23.374;2023-06-22T00:34:46;95011.47;;;21.51;75.46
10462;BME280;5278;42.656;23.374;2023-06-22T00:37:15;95019.84;;;21.48;75.74
10462;BME280;5278;42.656;23.374;2023-06-22T00:39:43;94998.38;;;21.21;76.20
10462;BME280;5278;42.656;23.374;2023-06-22T00:42:10;95020.69;;;21.37;76.61
10462;BME280;5278;42.656;23.374;2023-06-22T00:44:37;95016.53;;;21.29;77.06
10462;BME280;5278;42.656;23.374;2023-06-22T00:47:04;95018.59;;;21.27;76.99
10462;BME280;5278;42.656;23.374;2023-06-22T00:49:32;95021.22;;;21.27;77.02
10462;BME280;5278;42.656;23.374;2023-06-22T00:51:59;95022.41;;;21.20;77.19
10462;BME280;5278;42.656;23.374;2023-06-22T00:54:30;95015.81;;;21.22;76.83
10462;BME280;5278;42.656;23.374;2023-06-22T00:56:58;95027.56;;;21.15;75.62
10462;BME280;5278;42.656;23.374;2023-06-22T00:59:26;94984.09;;;20.76;76.02
10462;BME280;5278;42.656;23.374;2023-06-22T01:01:53;95012.47;;;20.92;76.97
10462;BME280;5278;42.656;23.374;2023-06-22T01:04:21;95016.94;;;20.80;78.04
10462;BME280;5278;42.656;23.374;2023-06-22T01:06:55;95018.41;;;20.64;79.71
10462;BME280;5278;42.656;23.374;2023-06-22T01:09:31;95029.31;;;20.68;79.87
10462;BME280;5278;42.656;23.374;2023-06-22T01:12:06;95017.03;;;20.61;80.18
10462;BME280;5278;42.656;23.374;2023-06-22T01:14:38;95030.78;;;20.63;80.46
10462;BME280;5278;42.656;23.374;2023-06-22T01:17:08;95012.88;;;20.54;80.83
10462;BME280;5278;42.656;23.374;2023-06-22T01:19:39;95038.03;;;20.56;81.63
10462;BME280;5278;42.656;23.374;2023-06-22T01:22:10;95034.00;;;20.54;81.69
10462;BME280;5278;42.656;23.374;2023-06-22T01:24:55;94943.47;;;19.94;82.21
10462;BME280;5278;42.656;23.374;2023-06-22T01:27:32;95033.56;;;20.57;82.38
10462;BME280;5278;42.656;23.374;2023-06-22T01:30:09;95037.09;;;20.62;82.39
10462;BME280;5278;42.656;23.374;2023-06-22T01:32:38;95041.34;;;20.63;82.80
10462;BME280;5278;42.656;23.374;2023-06-22T01:35:08;95044.59;;;20.66;83.00
10462;BME280;5278;42.656;23.374;2023-06-22T01:37:37;95051.63;;;20.72;82.85
10462;BME280;5278;42.656;23.374;2023-06-22T01:40:05;95041.41;;;20.75;82.79
10462;BME280;5278;42.656;23.374;2023-06-22T01:42:35;95032.78;;;20.80;82.38
10462;BME280;5278;42.656;23.374;2023-06-22T01:45:03;95025.78;;;20.85;82.42
10462;BME280;5278;42.656;23.374;2023-06-22T01:47:33;95037.97;;;20.86;82.36
10462;BME280;5278;42.656;23.374;2023-06-22T01:50:01;95040.94;;;20.78;82.69
10462;BME280;5278;42.656;23.374;2023-06-22T01:52:28;95048.97;;;20.83;82.73
10462;BME280;5278;42.656;23.374;2023-06-22T01:54:55;95050.25;;;20.81;82.66
10462;BME280;5278;42.656;23.374;2023-06-22T01:57:24;95052.66;;;20.82;82.96
10462;BME280;5278;42.656;23.374;2023-06-22T01:59:58;95058.75;;;20.83;82.66
10462;BME280;5278;42.656;23.374;2023-06-22T02:02:30;95022.66;;;20.65;82.68
10462;BME280;5278;42.656;23.374;2023-06-22T02:05:04;95047.50;;;20.76;83.17
10462;BME280;5278;42.656;23.374;2023-06-22T02:07:36;95054.94;;;20.79;82.89
10462;BME280;5278;42.656;23.374;2023-06-22T02:10:08;95057.47;;;20.74;82.65
10462;BME280;5278;42.656;23.374;2023-06-22T02:12:39;95059.53;;;20.72;82.46
10462;BME280;5278;42.656;23.374;2023-06-22T02:15:09;95061.38;;;20.71;82.74
10462;BME280;5278;42.656;23.374;2023-06-22T02:17:39;95056.53;;;20.68;82.91
10462;BME280;5278;42.656;23.374;2023-06-22T02:20:14;95047.78;;;20.56;83.47
10462;BME280;5278;42.656;23.374;2023-06-22T02:22:42;94957.50;;;20.06;83.59
10462;BME280;5278;42.656;23.374;2023-06-22T02:25:09;95039.19;;;20.60;83.16
10462;BME280;5278;42.656;23.374;2023-06-22T02:27:36;95045.56;;;20.53;83.65
10462;BME280;5278;42.656;23.374;2023-06-22T02:30:07;95061.94;;;20.61;83.73
10462;BME280;5278;42.656;23.374;2023-06-22T02:32:35;95053.41;;;20.59;83.77
10462;BME280;5278;42.656;23.374;2023-06-22T02:35:02;95030.88;;;20.45;84.11
10462;BME280;5278;42.656;23.374;2023-06-22T02:37:35;95036.41;;;20.55;83.78
10462;BME280;5278;42.656;23.374;2023-06-22T02:40:05;95040.66;;;20.56;83.35
10462;BME280;5278;42.656;23.374;2023-06-22T02:42:33;95055.47;;;20.57;83.20
10462;BME280;5278;42.656;23.374;2023-06-22T02:45:00;95051.00;;;20.58;83.54
10462;BME280;5278;42.656;23.374;2023-06-22T02:47:27;95051.53;;;20.48;84.03
10462;BME280;5278;42.656;23.374;2023-06-22T02:49:55;95049.34;;;20.45;84.34
10462;BME280;5278;42.656;23.374;2023-06-22T02:52:22;95049.34;;;20.45;84.02
10462;BME280;5278;42.656;23.374;2023-06-22T02:54:51;95056.47;;;20.45;83.66
10462;BME280;5278;42.656;23.374;2023-06-22T02:57:19;95059.06;;;20.33;83.58
10462;BME280;5278;42.656;23.374;2023-06-22T02:59:46;95071.59;;;20.38;83.46
10462;BME280;5278;42.656;23.374;2023-06-22T03:02:14;95047.50;;;20.16;83.36
10462;BME280;5278;42.656;23.374;2023-06-22T03:04:42;95071.22;;;20.34;82.83
10462;BME280;5278;42.656;23.374;2023-06-22T03:07:10;95063.91;;;20.36;82.89
10462;BME280;5278;42.656;23.374;2023-06-22T03:09:37;95055.84;;;20.31;83.01
10462;BME280;5278;42.656;23.374;2023-06-22T03:12:06;95055.53;;;20.39;82.66
10462;BME280;5278;42.656;23.374;2023-06-22T03:14:35;95060.72;;;20.46;82.71
10462;BME280;5278;42.656;23.374;2023-06-22T03:17:04;95067.97;;;20.50;82.61
10462;BME280;5278;42.656;23.374;2023-06-22T03:19:31;95075.34;;;20.60;81.98
10462;BME280;5278;42.656;23.374;2023-06-22T03:21:59;95047.88;;;20.49;81.58
10462;BME280;5278;42.656;23.374;2023-06-22T03:24:26;95087.25;;;20.81;81.17
10462;BME280;5278;42.656;23.374;2023-06-22T03:26:55;95090.38;;;21.01;81.16
10462;BME280;5278;42.656;23.374;2023-06-22T03:29:23;95084.16;;;20.95;80.86
10462;BME280;5278;42.656;23.374;2023-06-22T03:31:50;95087.41;;;21.09;80.34
10462;BME280;5278;42.656;23.374;2023-06-22T03:34:17;95082.25;;;21.14;79.97
10462;BME280;5278;42.656;23.374;2023-06-22T03:36:45;95091.00;;;21.15;79.45
10462;BME280;5278;42.656;23.374;2023-06-22T03:39:12;95083.31;;;21.25;79.05
10462;BME280;5278;42.656;23.374;2023-06-22T03:41:39;95104.69;;;21.35;78.91
10462;BME280;5278;42.656;23.374;2023-06-22T03:44:05;95096.41;;;21.43;78.59
10462;BME280;5278;42.656;23.374;2023-06-22T03:46:37;95093.88;;;21.48;78.86
10462;BME280;5278;42.656;23.374;2023-06-22T03:49:04;95094.13;;;21.46;78.89
10462;BME280;5278;42.656;23.374;2023-06-22T03:51:32;95078.13;;;21.53;78.29
10462;BME280;5278;42.656;23.374;2023-06-22T03:53:59;95093.19;;;21.64;77.94
10462;BME280;5278;42.656;23.374;2023-06-22T03:56:28;95108.72;;;21.84;77.85
10462;BME280;5278;42.656;23.374;2023-06-22T03:58:55;95105.03;;;21.85;77.33
10462;BME280;5278;42.656;23.374;2023-06-22T04:01:23;95102.25;;;22.03;76.75
10462;BME280;5278;42.656;23.374;2023-06-22T04:03:51;95107.16;;;22.23;76.22
10462;BME280;5278;42.656;23.374;2023-06-22T04:06:18;95108.28;;;22.39;75.42
10462;BME280;5278;42.656;23.374;2023-06-22T04:08:45;95114.56;;;22.49;74.88
10462;BME280;5278;42.656;23.374;2023-06-22T04:11:16;95113.88;;;22.54;74.71
10462;BME280;5278;42.656;23.374;2023-06-22T04:13:43;95106.81;;;22.59;74.66
10462;BME280;5278;42.656;23.374;2023-06-22T04:16:10;95102.66;;;22.63;74.34
10462;BME280;5278;42.656;23.374;2023-06-22T04:18:37;95099.13;;;22.86;73.98
10462;BME280;5278;42.656;23.374;2023-06-22T04:21:05;95096.97;;;23.16;73.44
10462;BME280;5278;42.656;23.374;2023-06-22T04:23:34;95092.44;;;23.45;71.92
10462;BME280;5278;42.656;23.374;2023-06-22T04:26:01;95084.34;;;23.74;71.51
10462;BME280;5278;42.656;23.374;2023-06-22T04:28:28;95087.88;;;24.01;70.15
10462;BME280;5278;42.656;23.374;2023-06-22T04:31:00;95085.09;;;24.29;67.64
10462;BME280;5278;42.656;23.374;2023-06-22T04:33:27;95075.63;;;24.38;66.84
10462;BME280;5278;42.656;23.374;2023-06-22T04:35:55;95040.03;;;24.18;66.24
10462;BME280;5278;42.656;23.374;2023-06-22T04:38:24;95070.72;;;24.52;65.67
10462;BME280;5278;42.656;23.374;2023-06-22T04:40:52;95079.31;;;24.59;65.13
10462;BME280;5278;42.656;23.374;2023-06-22T04:43:20;95058.66;;;24.71;64.63
10462;BME280;5278;42.656;23.374;2023-06-22T04:45:47;95064.25;;;24.97;63.46
10462;BME280;5278;42.656;23.374;2023-06-22T04:48:18;95069.22;;;25.15;62.61
10462;BME280;5278;42.656;23.374;2023-06-22T04:50:45;95055.53;;;25.38;61.87
10462;BME280;5278;42.656;23.374;2023-06-22T04:53:12;95067.50;;;25.73;61.84
10462;BME280;5278;42.656;23.374;2023-06-22T04:55:48;95080.44;;;26.01;60.85
10462;BME280;5278;42.656;23.374;2023-06-22T04:58:18;95081.47;;;26.52;59.33
10462;BME280;5278;42.656;23.374;2023-06-22T05:00:46;95090.88;;;26.80;59.09
10462;BME280;5278;42.656;23.374;2023-06-22T05:03:17;95094.94;;;27.18;57.30
10462;BME280;5278;42.656;23.374;2023-06-22T05:05:44;95102.97;;;27.43;56.39
10462;BME280;5278;42.656;23.374;2023-06-22T05:08:13;95022.63;;;27.29;54.93
10462;BME280;5278;42.656;23.374;2023-06-22T05:10:41;95088.72;;;28.08;53.28
10462;BME280;5278;42.656;23.374;2023-06-22T05:13:08;95095.38;;;28.26;53.26
10462;BME280;5278;42.656;23.374;2023-06-22T05:15:35;95088.75;;;28.67;51.28
10462;BME280;5278;42.656;23.374;2023-06-22T05:18:05;95085.34;;;29.06;49.47
10462;BME280;5278;42.656;23.374;2023-06-22T05:20:32;95085.91;;;29.42;47.71
10462;BME280;5278;42.656;23.374;2023-06-22T05:23:01;95074.94;;;29.67;47.63
10462;BME280;5278;42.656;23.374;2023-06-22T05:25:28;95084.38;;;29.93;46.27
10462;BME280;5278;42.656;23.374;2023-06-22T05:27:59;95095.91;;;30.18;46.04
10462;BME280;5278;42.656;23.374;2023-06-22T05:30:27;95095.28;;;30.45;44.97
10462;BME280;5278;42.656;23.374;2023-06-22T05:32:54;95094.34;;;30.59;44.78
10462;BME280;5278;42.656;23.374;2023-06-22T05:35:21;95093.38;;;30.93;44.02
10462;BME280;5278;42.656;23.374;2023-06-22T05:37:49;95110.09;;;31.08;43.07
10462;BME280;5278;42.656;23.374;2023-06-22T05:40:16;95112.59;;;31.37;41.81
10462;BME280;5278;42.656;23.374;2023-06-22T05:42:43;95103.69;;;31.55;41.62
10462;BME280;5278;42.656;23.374;2023-06-22T05:45:13;95109.69;;;31.98;41.51
10462;BME280;5278;42.656;23.374;2023-06-22T05:47:40;95091.63;;;32.18;40.48
10462;BME280;5278;42.656;23.374;2023-06-22T05:50:08;95122.09;;;32.54;39.30
10462;BME280;5278;42.656;23.374;2023-06-22T05:52:35;95124.41;;;32.61;39.06
10462;BME280;5278;42.656;23.374;2023-06-22T05:55:02;95124.00;;;32.81;39.21
10462;BME280;5278;42.656;23.374;2023-06-22T05:57:30;95110.03;;;32.93;38.99
10462;BME280;5278;42.656;23.374;2023-06-22T05:59:57;95104.06;;;33.18;38.15
10462;BME280;5278;42.656;23.374;2023-06-22T06:02:26;95114.75;;;33.45;38.23
10462;BME280;5278;42.656;23.374;2023-06-22T06:04:52;95106.91;;;33.57;37.55
10462;BME280;5278;42.656;23.374;2023-06-22T06:07:20;95111.69;;;33.83;37.37
10462;BME280;5278;42.656;23.374;2023-06-22T06:09:49;95104.09;;;34.15;36.95
10462;BME280;5278;42.656;23.374;2023-06-22T06:12:16;95113.25;;;34.37;36.06
10462;BME280;5278;42.656;23.374;2023-06-22T06:14:43;95099.81;;;34.63;35.58
10462;BME280;5278;42.656;23.374;2023-06-22T06:17:10;95094.13;;;34.73;35.13
10462;BME280;5278;42.656;23.374;2023-06-22T06:19:42;95093.06;;;34.91;35.17
10462;BME280;5278;42.656;23.374;2023-06-22T06:22:09;95095.31;;;35.15;33.79
10462;BME280;5278;42.656;23.374;2023-06-22T06:24:36;95090.88;;;35.19;34.12
10462;BME280;5278;42.656;23.374;2023-06-22T06:27:03;95096.47;;;35.31;34.48
10462;BME280;5278;42.656;23.374;2023-06-22T06:29:31;95094.03;;;35.55;34.04
10462;BME280;5278;42.656;23.374;2023-06-22T06:31:58;95094.03;;;35.81;32.80
10462;BME280;5278;42.656;23.374;2023-06-22T06:34:25;95096.22;;;35.88;32.70
10462;BME280;5278;42.656;23.374;2023-06-22T06:36:53;95095.06;;;36.14;32.30
10462;BME280;5278;42.656;23.374;2023-06-22T06:39:20;95095.84;;;36.15;32.38
10462;BME280;5278;42.656;23.374;2023-06-22T06:41:46;95090.09;;;36.25;31.52
10462;BME280;5278;42.656;23.374;2023-06-22T06:44:13;95082.63;;;36.51;30.63
10462;BME280;5278;42.656;23.374;2023-06-22T06:46:40;95077.53;;;36.50;31.29
10462;BME280;5278;42.656;23.374;2023-06-22T06:49:08;95083.16;;;36.74;31.08
10462;BME280;5278;42.656;23.374;2023-06-22T06:51:35;95082.25;;;36.61;30.55
10462;BME280;5278;42.656;23.374;2023-06-22T06:54:03;95076.00;;;36.40;31.70
10462;BME280;5278;42.656;23.374;2023-06-22T06:56:30;95050.06;;;36.31;31.51
10462;BME280;5278;42.656;23.374;2023-06-22T06:58:59;95066.78;;;36.62;31.20
10462;BME280;5278;42.656;23.374;2023-06-22T07:01:26;95069.41;;;36.79;30.79
10462;BME280;5278;42.656;23.374;2023-06-22T07:03:59;95078.59;;;36.66;31.16
10462;BME280;5278;42.656;23.374;2023-06-22T07:06:26;95072.13;;;36.03;32.18
10462;BME280;5278;42.656;23.374;2023-06-22T07:08:57;95071.75;;;35.67;32.20
10462;BME280;5278;42.656;23.374;2023-06-22T07:11:27;95003.25;;;34.85;33.32
10462;BME280;5278;42.656;23.374;2023-06-22T07:13:56;95082.75;;;35.02;34.61
10462;BME280;5278;42.656;23.374;2023-06-22T07:16:24;95077.63;;;34.74;35.17
10462;BME280;5278;42.656;23.374;2023-06-22T07:18:55;95069.44;;;34.48;35.95
10462;BME280;5278;42.656;23.374;2023-06-22T07:21:23;95075.06;;;34.69;34.52
10462;BME280;5278;42.656;23.374;2023-06-22T07:23:49;95076.84;;;34.99;34.34
10462;BME280;5278;42.656;23.374;2023-06-22T07:26:16;95073.03;;;35.61;33.82
10462;BME280;5278;42.656;23.374;2023-06-22T07:28:46;95073.47;;;36.35;31.52
10462;BME280;5278;42.656;23.374;2023-06-22T07:31:16;95066.47;;;36.63;30.91
10462;BME280;5278;42.656;23.374;2023-06-22T07:33:43;95074.44;;;36.89;31.25
10462;BME280;5278;42.656;23.374;2023-06-22T07:36:10;95072.91;;;37.42;30.45
10462;BME280;5278;42.656;23.374;2023-06-22T07:38:38;95068.44;;;37.91;30.07
10462;BME280;5278;42.656;23.374;2023-06-22T07:41:05;95074.06;;;38.19;29.45
10462;BME280;5278;42.656;23.374;2023-06-22T07:43:33;95077.84;;;38.51;29.41
10462;BME280;5278;42.656;23.374;2023-06-22T07:46:04;95066.97;;;38.63;28.87
10462;BME280;5278;42.656;23.374;2023-06-22T07:48:31;95073.91;;;39.12;28.49
10462;BME280;5278;42.656;23.374;2023-06-22T07:50:59;95074.25;;;39.11;28.14
10462;BME280;5278;42.656;23.374;2023-06-22T07:53:26;95075.50;;;39.13;27.78
10462;BME280;5278;42.656;23.374;2023-06-22T07:55:53;95077.72;;;39.36;27.45
10462;BME280;5278;42.656;23.374;2023-06-22T07:58:20;95071.81;;;39.62;27.21
10462;BME280;5278;42.656;23.374;2023-06-22T08:00:50;95076.81;;;39.87;27.20
10462;BME280;5278;42.656;23.374;2023-06-22T08:03:18;95070.59;;;40.03;27.18
10462;BME280;5278;42.656;23.374;2023-06-22T08:05:46;95067.25;;;39.93;26.89
10462;BME280;5278;42.656;23.374;2023-06-22T08:08:14;95061.84;;;40.25;26.63
10462;BME280;5278;42.656;23.374;2023-06-22T08:10:42;95060.16;;;40.36;26.07
10462;BME280;5278;42.656;23.374;2023-06-22T08:13:09;95060.25;;;40.39;26.33
10462;BME280;5278;42.656;23.374;2023-06-22T08:15:36;95055.28;;;40.76;26.23
10462;BME280;5278;42.656;23.374;2023-06-22T08:18:03;95055.28;;;41.11;25.33
10462;BME280;5278;42.656;23.374;2023-06-22T08:20:33;95055.06;;;40.85;25.10
10462;BME280;5278;42.656;23.374;2023-06-22T08:23:00;95050.75;;;40.33;25.99
10462;BME280;5278;42.656;23.374;2023-06-22T08:25:31;95048.00;;;40.18;26.60
10462;BME280;5278;42.656;23.374;2023-06-22T08:28:00;95030.97;;;39.89;26.99
10462;BME280;5278;42.656;23.374;2023-06-22T08:30:27;95043.28;;;39.71;27.06
10462;BME280;5278;42.656;23.374;2023-06-22T08:32:54;95039.88;;;39.74;27.04
10462;BME280;5278;42.656;23.374;2023-06-22T08:35:22;95032.63;;;39.78;27.14
10462;BME280;5278;42.656;23.374;2023-06-22T08:37:53;95040.03;;;39.66;26.80
10462;BME280;5278;42.656;23.374;2023-06-22T08:40:22;95037.78;;;39.40;26.81
10462;BME280;5278;42.656;23.374;2023-06-22T08:42:49;95050.69;;;39.15;27.40
10462;BME280;5278;42.656;23.374;2023-06-22T08:45:16;95048.78;;;39.03;28.15
10462;BME280;5278;42.656;23.374;2023-06-22T08:47:44;95056.97;;;38.67;27.93
10462;BME280;5278;42.656;23.374;2023-06-22T08:50:12;95051.44;;;38.39;28.61
10462;BME280;5278;42.656;23.374;2023-06-22T08:52:40;95047.69;;;38.44;29.18
10462;BME280;5278;42.656;23.374;2023-06-22T08:55:10;95046.34;;;38.38;28.53
10462;BME280;5278;42.656;23.374;2023-06-22T08:57:37;95047.56;;;38.28;28.72
10462;BME280;5278;42.656;23.374;2023-06-22T09:00:06;95038.19;;;38.62;28.36
10462;BME280;5278;42.656;23.374;2023-06-22T09:02:42;95033.91;;;39.13;27.36
10462;BME280;5278;42.656;23.374;2023-06-22T09:05:09;95036.94;;;39.79;26.90
10462;BME280;5278;42.656;23.374;2023-06-22T09:07:36;95031.41;;;40.23;26.01
10462;BME280;5278;42.656;23.374;2023-06-22T09:10:04;95027.13;;;40.72;25.19
10462;BME280;5278;42.656;23.374;2023-06-22T09:12:33;95024.88;;;40.94;24.77
10462;BME280;5278;42.656;23.374;2023-06-22T09:15:04;95013.41;;;41.04;24.94
10462;BME280;5278;42.656;23.374;2023-06-22T09:17:33;95019.50;;;41.36;25.71
10462;BME280;5278;42.656;23.374;2023-06-22T09:20:04;95017.63;;;42.01;24.09
10462;BME280;5278;42.656;23.374;2023-06-22T09:22:32;95031.38;;;42.54;24.55
10462;BME280;5278;42.656;23.374;2023-06-22T09:24:59;95017.38;;;42.85;22.63
10462;BME280;5278;42.656;23.374;2023-06-22T09:27:26;95040.84;;;43.46;22.09
10462;BME280;5278;42.656;23.374;2023-06-22T09:29:56;95025.50;;;43.74;21.48
10462;BME280;5278;42.656;23.374;2023-06-22T09:32:25;95035.09;;;43.91;22.21
10462;BME280;5278;42.656;23.374;2023-06-22T09:34:52;95031.13;;;44.26;21.11
10462;BME280;5278;42.656;23.374;2023-06-22T09:37:19;95033.59;;;44.41;21.30
10462;BME280;5278;42.656;23.374;2023-06-22T09:39:46;95025.84;;;45.12;20.80
10462;BME280;5278;42.656;23.374;2023-06-22T09:42:13;95034.63;;;45.42;20.62
10462;BME280;5278;42.656;23.374;2023-06-22T09:44:40;95030.41;;;45.95;19.79
10462;BME280;5278;42.656;23.374;2023-06-22T09:47:09;95022.63;;;46.18;19.70
10462;BME280;5278;42.656;23.374;2023-06-22T09:49:37;95035.19;;;46.54;18.69
10462;BME280;5278;42.656;23.374;2023-06-22T09:52:05;95020.59;;;46.79;18.44
10462;BME280;5278;42.656;23.374;2023-06-22T09:54:32;95022.56;;;46.92;18.82
10462;BME280;5278;42.656;23.374;2023-06-22T09:57:00;95020.19;;;46.91;18.62
10462;BME280;5278;42.656;23.374;2023-06-22T09:59:26;95018.13;;;47.16;18.20
10462;BME280;5278;42.656;23.374;2023-06-22T10:01:54;95008.69;;;47.17;18.09
10462;BME280;5278;42.656;23.374;2023-06-22T10:04:22;95009.72;;;47.48;18.06
10462;BME280;5278;42.656;23.374;2023-06-22T10:06:50;95009.53;;;47.07;18.27
10462;BME280;5278;42.656;23.374;2023-06-22T10:09:18;95003.28;;;46.82;17.89
10462;BME280;5278;42.656;23.374;2023-06-22T10:11:45;95000.97;;;46.62;18.43
10462;BME280;5278;42.656;23.374;2023-06-22T10:14:12;94997.75;;;46.96;17.99
10462;BME280;5278;42.656;23.374;2023-06-22T10:16:38;95004.00;;;47.07;17.81
10462;BME280;5278;42.656;23.374;2023-06-22T10:19:06;94993.91;;;46.47;18.16
10462;BME280;5278;42.656;23.374;2023-06-22T10:21:36;94985.22;;;46.59;18.42
10462;BME280;5278;42.656;23.374;2023-06-22T10:24:05;94972.25;;;46.46;17.95
10462;BME280;5278;42.656;23.374;2023-06-22T10:26:36;94998.22;;;46.55;18.39
10462;BME280;5278;42.656;23.374;2023-06-22T10:29:04;94995.03;;;46.82;18.54
10462;BME280;5278;42.656;23.374;2023-06-22T10:31:31;94994.56;;;47.04;18.20
10462;BME280;5278;42.656;23.374;2023-06-22T10:33:58;94996.53;;;47.07;17.38
10462;BME280;5278;42.656;23.374;2023-06-22T10:36:26;94977.66;;;47.06;17.05
10462;BME280;5278;42.656;23.374;2023-06-22T10:38:54;94988.88;;;47.43;16.70
10462;BME280;5278;42.656;23.374;2023-06-22T10:41:24;94990.00;;;47.57;17.18
10462;BME280;5278;42.656;23.374;2023-06-22T10:43:56;94981.16;;;47.17;16.68
10462;BME280;5278;42.656;23.374;2023-06-22T10:46:24;94983.16;;;47.06;17.20
10462;BME280;5278;42.656;23.374;2023-06-22T10:48:51;94979.16;;;47.21;16.96
10462;BME280;5278;42.656;23.374;2023-06-22T10:51:21;94980.63;;;47.43;16.85
10462;BME280;5278;42.656;23.374;2023-06-22T10:53:47;94984.22;;;47.33;17.41
10462;BME280;5278;42.656;23.374;2023-06-22T10:56:17;94989.81;;;47.08;17.27
10462;BME280;5278;42.656;23.374;2023-06-22T10:58:44;94980.81;;;46.94;17.40
10462;BME280;5278;42.656;23.374;2023-06-22T11:01:12;94969.06;;;46.83;16.54
10462;BME280;5278;42.656;23.374;2023-06-22T11:03:39;94980.50;;;46.14;17.47
10462;BME280;5278;42.656;23.374;2023-06-22T11:06:08;94978.50;;;45.68;17.94
10462;BME280;5278;42.656;23.374;2023-06-22T11:08:34;94976.31;;;45.01;18.52
10462;BME280;5278;42.656;23.374;2023-06-22T11:11:01;94977.47;;;44.32;19.48
10462;BME280;5278;42.656;23.374;2023-06-22T11:13:31;94980.84;;;43.70;19.78
10462;BME280;5278;42.656;23.374;2023-06-22T11:15:57;94977.88;;;43.12;19.57
10462;BME280;5278;42.656;23.374;2023-06-22T11:18:24;94976.44;;;42.66;20.85
10462;BME280;5278;42.656;23.374;2023-06-22T11:20:52;94971.91;;;42.50;21.28
10462;BME280;5278;42.656;23.374;2023-06-22T11:23:19;94960.06;;;42.17;21.76
10462;BME280;5278;42.656;23.374;2023-06-22T11:25:46;94956.16;;;42.14;21.26
10462;BME280;5278;42.656;23.374;2023-06-22T11:28:13;94937.56;;;41.78;21.61
10462;BME280;5278;42.656;23.374;2023-06-22T11:30:44;94959.56;;;41.62;20.82
10462;BME280;5278;42.656;23.374;2023-06-22T11:33:10;94949.84;;;41.22;21.76
10462;BME280;5278;42.656;23.374;2023-06-22T11:35:37;94958.25;;;41.14;21.70
10462;BME280;5278;42.656;23.374;2023-06-22T11:38:05;94947.63;;;40.90;22.03
10462;BME280;5278;42.656;23.374;2023-06-22T11:40:33;94950.38;;;40.20;22.84
10462;BME280;5278;42.656;23.374;2023-06-22T11:42:59;94956.09;;;39.83;22.95
10462;BME280;5278;42.656;23.374;2023-06-22T11:45:26;94957.28;;;39.39;23.59
10462;BME280;5278;42.656;23.374;2023-06-22T11:47:55;94947.31;;;38.75;24.23
10462;BME280;5278;42.656;23.374;2023-06-22T11:50:22;94944.84;;;38.70;24.30
10462;BME280;5278;42.656;23.374;2023-06-22T11:52:49;94938.25;;;38.71;24.71
10462;BME280;5278;42.656;23.374;2023-06-22T11:55:16;94938.78;;;38.89;25.15
10462;BME280;5278;42.656;23.374;2023-06-22T11:57:54;94938.94;;;39.08;24.52
10462;BME280;5278;42.656;23.374;2023-06-22T12:00:25;94927.94;;;39.32;24.71
10462;BME280;5278;42.656;23.374;2023-06-22T12:02:52;94906.63;;;39.50;24.69
10462;BME280;5278;42.656;23.374;2023-06-22T12:05:21;94917.00;;;39.60;24.35
10462;BME280;5278;42.656;23.374;2023-06-22T12:07:49;94933.22;;;39.72;24.36
10462;BME280;5278;42.656;23.374;2023-06-22T12:10:16;94938.44;;;39.93;23.51
10462;BME280;5278;42.656;23.374;2023-06-22T12:12:43;94941.75;;;39.86;24.77
10462;BME280;5278;42.656;23.374;2023-06-22T12:15:10;94942.63;;;39.75;23.86
10462;BME280;5278;42.656;23.374;2023-06-22T12:17:37;94950.00;;;39.31;24.85
10462;BME280;5278;42.656;23.374;2023-06-22T12:20:08;94959.72;;;38.48;26.41
10462;BME280;5278;42.656;23.374;2023-06-22T12:22:38;94964.00;;;36.98;29.07
10462;BME280;5278;42.656;23.374;2023-06-22T12:25:06;94970.50;;;35.76;31.32
10462;BME280;5278;42.656;23.374;2023-06-22T12:27:35;94964.59;;;34.59;32.84
10462;BME280;5278;42.656;23.374;2023-06-22T12:30:03;94955.91;;;33.26;34.80
10462;BME280;5278;42.656;23.374;2023-06-22T12:32:31;94958.53;;;32.73;36.54
10462;BME280;5278;42.656;23.374;2023-06-22T12:34:58;94976.28;;;32.25;37.73
10462;BME280;5278;42.656;23.374;2023-06-22T12:37:25;94976.59;;;31.96;39.19
10462;BME280;5278;42.656;23.374;2023-06-22T12:39:54;94998.50;;;31.76;40.30
10462;BME280;5278;42.656;23.374;2023-06-22T12:42:22;95010.63;;;31.59;41.13
10462;BME280;5278;42.656;23.374;2023-06-22T12:44:53;95019.09;;;31.20;44.43
10462;BME280;5278;42.656;23.374;2023-06-22T12:47:20;95022.31;;;30.66;47.89
10462;BME280;5278;42.656;23.374;2023-06-22T12:49:47;95010.38;;;30.35;49.18
10462;BME280;5278;42.656;23.374;2023-06-22T12:52:14;95015.16;;;29.96;51.04
10462;BME280;5278;42.656;23.374;2023-06-22T12:54:42;95012.94;;;29.79;50.91
10462;BME280;5278;42.656;23.374;2023-06-22T12:57:10;95024.03;;;29.67;52.96
10462;BME280;5278;42.656;23.374;2023-06-22T12:59:39;95028.91;;;29.60;55.71
10462;BME280;5278;42.656;23.374;2023-06-22T13:02:06;95043.97;;;29.56;55.09
10462;BME280;5278;42.656;23.374;2023-06-22T13:04:33;95040.34;;;29.42;55.73